sensor_id;sensor_type;location;lat;lon;timestamp;noise_LAeq;noise_LA_min;noise_LA_max;noise_LA01;noise_LA95
52872;Laerm;40124;52.198;9.902;2023-04-01T00:02:16;44.59;37.52;58.25;;
52872;Laerm;40124;52.198;9.902;2023-04-01T00:04:41;51.46;36.20;68.82;;
52872;Laerm;40124;52.198;9.902;2023-04-01T00:07:06;41.05;37.52;43.39;;
52872;Laerm;40124;52.198;9.902;2023-04-01T00:09:31;55.37;37.70;75.69;;
52872;Laerm;40124;52.198;9.902;2023-04-01T00:11:56;59.86;37.52;79.35;;
52872;Laerm;40124;52.198;9.902;2023-04-01T00:14:22;56.99;37.70;77.30;;
52872;Laerm;40124;52.198;9.902;2023-04-01T00:16:47;59.64;37.12;78.98;;
52872;Laerm;40124;52.198;9.902;2023-04-01T00:19:12;54.25;37.70;79.46;;
52872;Laerm;40124;52.198;9.902;2023-04-01T00:21:37;57.14;37.88;79.24;;
52872;Laerm;40124;52.198;9.902;2023-04-01T00:24:02;61.51;36.91;81.90;;
52872;Laerm;40124;52.198;9.902;2023-04-01T00:26:28;40.32;36.45;42.88;;
52872;Laerm;40124;52.198;9.902;2023-04-01T00:28:53;39.90;35.66;42.88;;
52872;Laerm;40124;52.198;9.902;2023-04-01T00:31:18;40.45;36.91;44.87;;
52872;Laerm;40124;52.198;9.902;2023-04-01T00:33:43;61.32;36.91;79.79;;
52872;Laerm;40124;52.198;9.902;2023-04-01T00:36:13;57.45;36.20;77.72;;
52872;Laerm;40124;52.198;9.902;2023-04-01T00:38:39;60.23;37.88;78.02;;
52872;Laerm;40124;52.198;9.902;2023-04-01T00:41:04;58.48;36.45;77.75;;
52872;Laerm;40124;52.198;9.902;2023-04-01T00:43:30;39.84;36.45;42.22;;
52872;Laerm;40124;52.198;9.902;2023-04-01T00:45:55;64.28;36.20;83.29;;
52872;Laerm;40124;52.198;9.902;2023-04-01T00:48:26;62.55;38.81;81.82;;
52872;Laerm;40124;52.198;9.902;2023-04-01T00:50:56;58.70;37.12;76.43;;
52872;Laerm;40124;52.198;9.902;2023-04-01T00:53:22;39.40;35.66;41.89;;
52872;Laerm;40124;52.198;9.902;2023-04-01T00:55:50;60.26;37.12;76.55;;
52872;Laerm;40124;52.198;9.902;2023-04-01T00:58:17;42.06;36.20;56.50;;
52872;Laerm;40124;52.198;9.902;2023-04-01T01:00:43;60.98;37.32;79.32;;
52872;Laerm;40124;52.198;9.902;2023-04-01T01:03:10;41.08;37.52;43.39;;
52872;Laerm;40124;52.198;9.902;2023-04-01T01:05:38;57.45;36.45;76.96;;
52872;Laerm;40124;52.198;9.902;2023-04-01T01:08:12;58.30;39.92;77.03;;
52872;Laerm;40124;52.198;9.902;2023-04-01T01:10:38;46.88;39.58;66.41;;
52872;Laerm;40124;52.198;9.902;2023-04-01T01:13:10;61.50;40.23;79.44;;
52872;Laerm;40124;52.198;9.902;2023-04-01T01:15:50;65.92;37.12;87.88;;
52872;Laerm;40124;52.198;9.902;2023-04-01T01:18:34;59.31;36.20;81.69;;
52872;Laerm;40124;52.198;9.902;2023-04-01T01:26:23;57.63;35.86;78.45;;
52872;Laerm;40124;52.198;9.902;2023-04-01T01:29:01;40.20;37.12;53.41;;
52872;Laerm;40124;52.198;9.902;2023-04-01T01:31:44;56.26;39.34;76.92;;
52872;Laerm;40124;52.198;9.902;2023-04-01T01:34:19;62.67;41.82;80.12;;
52872;Laerm;40124;52.198;9.902;2023-04-01T01:36:48;61.61;40.53;79.18;;
52872;Laerm;40124;52.198;9.902;2023-04-01T01:39:16;62.60;39.21;81.30;;
52872;Laerm;40124;52.198;9.902;2023-04-01T01:41:41;61.06;36.69;80.50;;
52872;Laerm;40124;52.198;9.902;2023-04-01T01:44:08;46.49;37.12;62.34;;
52872;Laerm;40124;52.198;9.902;2023-04-01T01:46:36;61.83;36.69;83.86;;
52872;Laerm;40124;52.198;9.902;2023-04-01T01:49:03;68.47;36.45;86.97;;
52872;Laerm;40124;52.198;9.902;2023-04-01T01:51:29;39.69;35.94;45.04;;
52872;Laerm;40124;52.198;9.902;2023-04-01T01:53:54;39.59;35.66;42.41;;
52872;Laerm;40124;52.198;9.902;2023-04-01T01:56:20;40.37;35.94;43.14;;
52872;Laerm;40124;52.198;9.902;2023-04-01T01:58:47;62.78;37.70;81.55;;
52872;Laerm;40124;52.198;9.902;2023-04-01T02:01:17;58.88;37.52;78.57;;
52872;Laerm;40124;52.198;9.902;2023-04-01T02:03:44;48.79;38.05;68.41;;
52872;Laerm;40124;52.198;9.902;2023-04-01T02:06:15;59.15;37.70;79.29;;
52872;Laerm;40124;52.198;9.902;2023-04-01T02:08:43;57.06;35.66;76.45;;
52872;Laerm;40124;52.198;9.902;2023-04-01T02:11:10;68.35;40.53;90.49;;
52872;Laerm;40124;52.198;9.902;2023-04-01T02:13:41;42.08;39.21;44.58;;
52872;Laerm;40124;52.198;9.902;2023-04-01T02:16:11;41.66;35.36;67.30;;
52872;Laerm;40124;52.198;9.902;2023-04-01T02:18:37;63.74;36.91;82.60;;
52872;Laerm;40124;52.198;9.902;2023-04-01T02:21:03;39.17;34.69;42.35;;
52872;Laerm;40124;52.198;9.902;2023-04-01T02:23:29;39.36;34.69;41.96;;
52872;Laerm;40124;52.198;9.902;2023-04-01T02:25:56;42.49;35.04;55.79;;
52872;Laerm;40124;52.198;9.902;2023-04-01T02:28:22;57.53;35.04;77.64;;
52872;Laerm;40124;52.198;9.902;2023-04-01T02:30:48;41.04;36.91;47.08;;
52872;Laerm;40124;52.198;9.902;2023-04-01T02:33:14;60.09;38.81;77.20;;
52872;Laerm;40124;52.198;9.902;2023-04-01T02:35:40;60.92;35.94;81.92;;
52872;Laerm;40124;52.198;9.902;2023-04-01T02:38:05;39.96;35.04;51.31;;
52872;Laerm;40124;52.198;9.902;2023-04-01T02:40:40;41.75;37.70;53.64;;
52872;Laerm;40124;52.198;9.902;2023-04-01T02:43:06;67.62;38.95;89.17;;
52872;Laerm;40124;52.198;9.902;2023-04-01T02:45:31;66.91;37.32;88.88;;
52872;Laerm;40124;52.198;9.902;2023-04-01T02:47:56;72.50;37.52;91.60;;
52872;Laerm;40124;52.198;9.902;2023-04-01T02:50:21;50.93;37.12;68.56;;
52872;Laerm;40124;52.198;9.902;2023-04-01T02:52:46;62.28;37.70;79.82;;
52872;Laerm;40124;52.198;9.902;2023-04-01T02:55:11;63.21;37.70;80.59;;
52872;Laerm;40124;52.198;9.902;2023-04-01T02:57:37;39.77;35.94;42.71;;
52872;Laerm;40124;52.198;9.902;2023-04-01T03:00:02;64.48;36.20;80.92;;
52872;Laerm;40124;52.198;9.902;2023-04-01T03:02:27;66.28;40.98;87.42;;
52872;Laerm;40124;52.198;9.902;2023-04-01T03:04:52;43.73;40.43;53.74;;
52872;Laerm;40124;52.198;9.902;2023-04-01T03:07:17;67.43;42.09;86.34;;
52872;Laerm;40124;52.198;9.902;2023-04-01T03:09:43;67.37;42.29;83.37;;
52872;Laerm;40124;52.198;9.902;2023-04-01T03:12:08;65.86;42.16;81.87;;
52872;Laerm;40124;52.198;9.902;2023-04-01T03:14:33;58.93;41.38;80.02;;
52872;Laerm;40124;52.198;9.902;2023-04-01T03:16:58;58.35;41.53;77.82;;
52872;Laerm;40124;52.198;9.902;2023-04-01T03:19:23;59.56;41.46;79.16;;
52872;Laerm;40124;52.198;9.902;2023-04-01T03:24:51;67.09;41.75;82.93;;
52872;Laerm;40124;52.198;9.902;2023-04-01T03:27:16;57.38;39.58;77.61;;
52872;Laerm;40124;52.198;9.902;2023-04-01T03:29:42;64.13;40.13;84.04;;
52872;Laerm;40124;52.198;9.902;2023-04-01T03:32:07;64.53;39.92;82.62;;
52872;Laerm;40124;52.198;9.902;2023-04-01T03:34:32;64.41;39.21;82.99;;
52872;Laerm;40124;52.198;9.902;2023-04-01T03:36:57;65.20;40.63;79.31;;
52872;Laerm;40124;52.198;9.902;2023-04-01T03:39:22;59.88;38.21;77.22;;
52872;Laerm;40124;52.198;9.902;2023-04-01T03:41:47;60.24;36.69;78.18;;
52872;Laerm;40124;52.198;9.902;2023-04-01T03:44:13;64.48;37.70;80.54;;
52872;Laerm;40124;52.198;9.902;2023-04-01T03:46:38;64.75;38.67;81.57;;
52872;Laerm;40124;52.198;9.902;2023-04-01T03:49:06;69.49;38.21;85.40;;
52872;Laerm;40124;52.198;9.902;2023-04-01T03:51:36;56.87;37.52;75.51;;
52872;Laerm;40124;52.198;9.902;2023-04-01T03:54:01;41.12;36.20;51.67;;
52872;Laerm;40124;52.198;9.902;2023-04-01T03:56:26;47.38;36.69;58.82;;
52872;Laerm;40124;52.198;9.902;2023-04-01T03:58:51;66.28;36.69;82.18;;
52872;Laerm;40124;52.198;9.902;2023-04-01T04:01:18;68.69;38.52;86.60;;
52872;Laerm;40124;52.198;9.902;2023-04-01T04:03:43;63.41;38.05;81.64;;
52872;Laerm;40124;52.198;9.902;2023-04-01T04:06:12;65.92;37.52;82.23;;
52872;Laerm;40124;52.198;9.902;2023-04-01T04:08:38;63.21;38.21;81.08;;
52872;Laerm;40124;52.198;9.902;2023-04-01T04:11:03;61.88;38.21;77.89;;
52872;Laerm;40124;52.198;9.902;2023-04-01T04:13:28;60.05;37.88;77.18;;
52872;Laerm;40124;52.198;9.902;2023-04-01T04:15:53;59.67;39.46;78.28;;
52872;Laerm;40124;52.198;9.902;2023-04-01T04:18:18;65.93;42.76;81.23;;
52872;Laerm;40124;52.198;9.902;2023-04-01T04:20:46;67.86;43.72;83.88;;
52872;Laerm;40124;52.198;9.902;2023-04-01T04:23:15;60.91;41.55;76.80;;
52872;Laerm;40124;52.198;9.902;2023-04-01T04:25:40;66.20;41.22;81.84;;
52872;Laerm;40124;52.198;9.902;2023-04-01T04:28:05;58.49;40.89;76.44;;
52872;Laerm;40124;52.198;9.902;2023-04-01T04:30:30;66.82;40.33;80.12;;
52872;Laerm;40124;52.198;9.902;2023-04-01T04:32:55;58.18;40.89;76.62;;
52872;Laerm;40124;52.198;9.902;2023-04-01T04:35:20;64.50;40.03;80.07;;
52872;Laerm;40124;52.198;9.902;2023-04-01T04:37:46;61.55;41.82;78.34;;
52872;Laerm;40124;52.198;9.902;2023-04-01T04:40:11;65.88;41.14;83.41;;
52872;Laerm;40124;52.198;9.902;2023-04-01T04:42:36;70.59;39.89;86.82;;
52872;Laerm;40124;52.198;9.902;2023-04-01T04:45:01;66.64;40.03;80.66;;
52872;Laerm;40124;52.198;9.902;2023-04-01T04:47:26;67.58;40.23;86.41;;
52872;Laerm;40124;52.198;9.902;2023-04-01T04:49:51;69.55;40.98;86.59;;
52872;Laerm;40124;52.198;9.902;2023-04-01T04:52:17;65.63;39.89;81.40;;
52872;Laerm;40124;52.198;9.902;2023-04-01T04:54:42;66.99;39.81;84.39;;
52872;Laerm;40124;52.198;9.902;2023-04-01T04:57:07;62.22;39.70;79.30;;
52872;Laerm;40124;52.198;9.902;2023-04-01T04:59:32;70.07;42.29;84.28;;
52872;Laerm;40124;52.198;9.902;2023-04-01T05:01:57;61.85;39.08;78.66;;
52872;Laerm;40124;52.198;9.902;2023-04-01T05:04:22;57.24;40.53;76.63;;
52872;Laerm;40124;52.198;9.902;2023-04-01T05:06:48;68.00;42.98;81.58;;
52872;Laerm;40124;52.198;9.902;2023-04-01T05:09:13;67.00;43.54;81.11;;
52872;Laerm;40124;52.198;9.902;2023-04-01T05:11:38;67.76;44.27;80.37;;
52872;Laerm;40124;52.198;9.902;2023-04-01T05:14:03;70.11;42.29;83.23;;
52872;Laerm;40124;52.198;9.902;2023-04-01T05:16:28;66.54;40.62;84.44;;
52872;Laerm;40124;52.198;9.902;2023-04-01T05:18:54;70.38;43.72;85.86;;
52872;Laerm;40124;52.198;9.902;2023-04-01T05:21:19;69.55;47.88;82.50;;
52872;Laerm;40124;52.198;9.902;2023-04-01T05:23:45;68.16;43.54;82.54;;
52872;Laerm;40124;52.198;9.902;2023-04-01T05:26:13;68.07;41.06;86.93;;
52872;Laerm;40124;52.198;9.902;2023-04-01T05:28:39;65.43;40.71;81.14;;
52872;Laerm;40124;52.198;9.902;2023-04-01T05:31:05;68.84;40.71;86.81;;
52872;Laerm;40124;52.198;9.902;2023-04-01T05:33:31;68.15;42.53;82.54;;
52872;Laerm;40124;52.198;9.902;2023-04-01T05:35:56;65.96;41.30;80.10;;
52872;Laerm;40124;52.198;9.902;2023-04-01T05:38:24;68.36;42.41;84.83;;
52872;Laerm;40124;52.198;9.902;2023-04-01T05:40:49;67.80;45.39;81.47;;
52872;Laerm;40124;52.198;9.902;2023-04-01T05:43:14;65.50;39.46;80.53;;
52872;Laerm;40124;52.198;9.902;2023-04-01T05:45:40;67.77;44.03;82.22;;
52872;Laerm;40124;52.198;9.902;2023-04-01T05:48:05;69.03;43.24;83.23;;
52872;Laerm;40124;52.198;9.902;2023-04-01T05:50:30;67.37;42.88;80.24;;
52872;Laerm;40124;52.198;9.902;2023-04-01T05:52:55;67.08;42.09;78.91;;
52872;Laerm;40124;52.198;9.902;2023-04-01T05:55:21;72.55;43.72;90.28;;
52872;Laerm;40124;52.198;9.902;2023-04-01T05:57:46;69.36;42.76;87.87;;
52872;Laerm;40124;52.198;9.902;2023-04-01T06:00:13;63.90;40.23;79.99;;
52872;Laerm;40124;52.198;9.902;2023-04-01T06:02:39;67.63;41.89;79.28;;
52872;Laerm;40124;52.198;9.902;2023-04-01T06:07:35;65.61;40.71;79.63;;
52872;Laerm;40124;52.198;9.902;2023-04-01T06:10:01;66.29;42.22;80.71;;
52872;Laerm;40124;52.198;9.902;2023-04-01T06:12:45;66.18;43.09;81.15;;
52872;Laerm;40124;52.198;9.902;2023-04-01T06:15:20;67.51;40.89;80.43;;
52872;Laerm;40124;52.198;9.902;2023-04-01T06:18:03;68.26;43.72;81.78;;
52872;Laerm;40124;52.198;9.902;2023-04-01T06:20:43;64.81;42.29;80.22;;
52872;Laerm;40124;52.198;9.902;2023-04-01T06:36:25;71.42;48.83;93.18;;
52872;Laerm;40124;52.198;9.902;2023-04-01T06:39:04;70.18;46.59;81.69;;
52872;Laerm;40124;52.198;9.902;2023-04-01T06:43:59;66.53;42.82;82.10;;
52872;Laerm;40124;52.198;9.902;2023-04-01T06:46:40;67.44;41.22;80.52;;
52872;Laerm;40124;52.198;9.902;2023-04-01T06:51:47;70.36;43.77;82.26;;
52872;Laerm;40124;52.198;9.902;2023-04-01T06:56:44;70.74;46.38;83.04;;
52872;Laerm;40124;52.198;9.902;2023-04-01T06:59:17;71.55;53.84;80.55;;
52872;Laerm;40124;52.198;9.902;2023-04-01T07:04:11;70.59;47.57;82.77;;
52872;Laerm;40124;52.198;9.902;2023-04-01T07:06:39;71.65;47.88;82.62;;
52872;Laerm;40124;52.198;9.902;2023-04-01T07:09:09;70.96;48.55;80.92;;
52872;Laerm;40124;52.198;9.902;2023-04-01T07:11:37;72.34;47.14;85.60;;
52872;Laerm;40124;52.198;9.902;2023-04-01T07:14:04;68.62;44.15;81.70;;
52872;Laerm;40124;52.198;9.902;2023-04-01T07:16:38;69.98;43.72;82.36;;
52872;Laerm;40124;52.198;9.902;2023-04-01T07:19:11;69.56;41.61;82.35;;
52872;Laerm;40124;52.198;9.902;2023-04-01T07:24:21;69.45;39.78;83.52;;
52872;Laerm;40124;52.198;9.902;2023-04-01T07:26:48;71.17;48.49;83.34;;
52872;Laerm;40124;52.198;9.902;2023-04-01T07:29:17;69.25;47.24;82.91;;
52872;Laerm;40124;52.198;9.902;2023-04-01T07:37:11;71.63;43.09;83.56;;
52872;Laerm;40124;52.198;9.902;2023-04-01T07:43:13;69.65;42.93;81.90;;
52872;Laerm;40124;52.198;9.902;2023-04-01T07:45:12;69.43;44.35;82.01;;
52872;Laerm;40124;52.198;9.902;2023-04-01T07:47:59;71.29;48.29;84.35;;
52872;Laerm;40124;52.198;9.902;2023-04-01T07:50:33;70.64;46.66;81.31;;
52872;Laerm;40124;52.198;9.902;2023-04-01T07:55:55;69.49;45.14;84.30;;
52872;Laerm;40124;52.198;9.902;2023-04-01T08:05:59;72.87;53.87;88.27;;
52872;Laerm;40124;52.198;9.902;2023-04-01T08:08:37;70.52;42.98;85.99;;
52872;Laerm;40124;52.198;9.902;2023-04-01T08:11:13;71.20;47.93;84.80;;
52872;Laerm;40124;52.198;9.902;2023-04-01T08:13:44;71.39;48.43;84.90;;
52872;Laerm;40124;52.198;9.902;2023-04-01T08:16:19;71.90;52.10;86.93;;
52872;Laerm;40124;52.198;9.902;2023-04-01T08:21:30;68.16;44.54;79.95;;
52872;Laerm;40124;52.198;9.902;2023-04-01T08:23:58;69.94;45.27;82.97;;
52872;Laerm;40124;52.198;9.902;2023-04-01T08:28:52;69.20;43.81;79.98;;
52872;Laerm;40124;52.198;9.902;2023-04-01T08:31:36;69.13;41.38;83.29;;
52872;Laerm;40124;52.198;9.902;2023-04-01T08:34:03;70.04;47.28;82.48;;
52872;Laerm;40124;52.198;9.902;2023-04-01T08:36:37;70.40;46.35;82.34;;
52872;Laerm;40124;52.198;9.902;2023-04-01T08:39:04;73.07;48.87;87.61;;
52872;Laerm;40124;52.198;9.902;2023-04-01T08:44:19;72.34;51.93;82.28;;
52872;Laerm;40124;52.198;9.902;2023-04-01T08:46:56;70.13;44.11;82.48;;
52872;Laerm;40124;52.198;9.902;2023-04-01T08:54:48;70.41;46.69;81.86;;
52872;Laerm;40124;52.198;9.902;2023-04-01T08:57:38;69.39;40.23;81.27;;
52872;Laerm;40124;52.198;9.902;2023-04-01T09:03:24;69.63;45.45;80.73;;
52872;Laerm;40124;52.198;9.902;2023-04-01T09:08:16;69.29;47.38;80.46;;
52872;Laerm;40124;52.198;9.902;2023-04-01T09:10:47;68.81;44.62;81.21;;
52872;Laerm;40124;52.198;9.902;2023-04-01T09:13:29;69.76;43.86;82.90;;
52872;Laerm;40124;52.198;9.902;2023-04-01T09:16:09;68.94;48.12;81.32;;
52872;Laerm;40124;52.198;9.902;2023-04-01T09:21:18;70.08;44.38;81.85;;
52872;Laerm;40124;52.198;9.902;2023-04-01T09:29:14;73.16;49.40;86.58;;
52872;Laerm;40124;52.198;9.902;2023-04-01T09:39:55;68.31;44.97;80.77;;
52872;Laerm;40124;52.198;9.902;2023-04-01T09:42:31;67.58;51.30;79.49;;
52872;Laerm;40124;52.198;9.902;2023-04-01T09:45:00;68.26;45.17;80.40;;
52872;Laerm;40124;52.198;9.902;2023-04-01T09:50:23;70.69;48.54;86.01;;
52872;Laerm;40124;52.198;9.902;2023-04-01T09:58:02;70.42;47.93;80.47;;
52872;Laerm;40124;52.198;9.902;2023-04-01T10:03:28;69.15;47.50;78.53;;
52872;Laerm;40124;52.198;9.902;2023-04-01T10:06:08;69.35;45.75;80.25;;
52872;Laerm;40124;52.198;9.902;2023-04-01T10:14:11;69.99;44.49;82.17;;
52872;Laerm;40124;52.198;9.902;2023-04-01T10:16:52;70.28;41.61;81.00;;
52872;Laerm;40124;52.198;9.902;2023-04-01T10:19:46;70.15;45.75;81.09;;
52872;Laerm;40124;52.198;9.902;2023-04-01T10:22:27;69.06;41.53;80.37;;
52872;Laerm;40124;52.198;9.902;2023-04-01T10:27:30;70.69;42.71;85.72;;
52872;Laerm;40124;52.198;9.902;2023-04-01T10:35:10;70.89;49.21;81.88;;
52872;Laerm;40124;52.198;9.902;2023-04-01T10:51:10;70.16;43.49;81.82;;
52872;Laerm;40124;52.198;9.902;2023-04-01T11:22:39;70.75;45.39;80.58;;
52872;Laerm;40124;52.198;9.902;2023-04-01T11:35:22;70.31;43.19;83.53;;
52872;Laerm;40124;52.198;9.902;2023-04-01T11:40:41;73.02;48.13;85.03;;
52872;Laerm;40124;52.198;9.902;2023-04-01T11:43:19;71.33;48.16;83.35;;
52872;Laerm;40124;52.198;9.902;2023-04-01T11:56:18;70.95;45.63;82.19;;
52872;Laerm;40124;52.198;9.902;2023-04-01T11:58:55;70.76;42.35;86.12;;
52872;Laerm;40124;52.198;9.902;2023-04-01T12:07:02;70.95;44.62;81.51;;
52872;Laerm;40124;52.198;9.902;2023-04-01T12:09:34;70.53;42.93;81.05;;
52872;Laerm;40124;52.198;9.902;2023-04-01T12:12:20;70.68;49.46;81.71;;
52872;Laerm;40124;52.198;9.902;2023-04-01T12:22:21;71.62;47.50;81.86;;
52872;Laerm;40124;52.198;9.902;2023-04-01T12:27:35;70.91;46.38;82.68;;
52872;Laerm;40124;52.198;9.902;2023-04-01T12:32:46;70.35;47.38;83.35;;
52872;Laerm;40124;52.198;9.902;2023-04-01T12:38:02;70.14;46.52;84.10;;
52872;Laerm;40124;52.198;9.902;2023-04-01T12:40:46;70.62;44.90;84.75;;
52872;Laerm;40124;52.198;9.902;2023-04-01T12:45:42;71.34;52.00;84.87;;
52872;Laerm;40124;52.198;9.902;2023-04-01T12:56:14;70.67;44.83;81.62;;
52872;Laerm;40124;52.198;9.902;2023-04-01T13:01:10;69.01;43.51;81.77;;
52872;Laerm;40124;52.198;9.902;2023-04-01T13:03:52;68.71;43.19;81.13;;
52872;Laerm;40124;52.198;9.902;2023-04-01T13:16:46;69.76;45.54;80.10;;
52872;Laerm;40124;52.198;9.902;2023-04-01T13:19:19;70.01;47.46;86.08;;
52872;Laerm;40124;52.198;9.902;2023-04-01T13:21:51;71.94;49.50;90.77;;
52872;Laerm;40124;52.198;9.902;2023-04-01T13:24:31;68.65;47.36;79.67;;
52872;Laerm;40124;52.198;9.902;2023-04-01T13:27:04;69.68;46.35;80.71;;
52872;Laerm;40124;52.198;9.902;2023-04-01T13:29:45;66.06;42.59;79.83;;
52872;Laerm;40124;52.198;9.902;2023-04-01T13:34:45;68.09;41.61;81.89;;
52872;Laerm;40124;52.198;9.902;2023-04-01T13:42:26;70.10;46.48;81.87;;
52872;Laerm;40124;52.198;9.902;2023-04-01T13:45:00;68.56;45.59;80.30;;
52872;Laerm;40124;52.198;9.902;2023-04-01T13:47:39;69.31;41.30;80.88;;
52872;Laerm;40124;52.198;9.902;2023-04-01T13:50:23;69.00;45.77;81.50;;
52872;Laerm;40124;52.198;9.902;2023-04-01T14:03:14;70.49;49.30;80.78;;
52872;Laerm;40124;52.198;9.902;2023-04-01T14:05:51;70.21;46.45;83.01;;
52872;Laerm;40124;52.198;9.902;2023-04-01T14:10:54;70.33;49.49;81.97;;
52872;Laerm;40124;52.198;9.902;2023-04-01T14:16:20;70.44;45.42;81.42;;
52872;Laerm;40124;52.198;9.902;2023-04-01T14:24:28;70.72;45.91;81.16;;
52872;Laerm;40124;52.198;9.902;2023-04-01T14:27:12;70.53;44.43;82.47;;
52872;Laerm;40124;52.198;9.902;2023-04-01T14:29:53;69.50;48.20;80.15;;
52872;Laerm;40124;52.198;9.902;2023-04-01T14:35:09;70.78;52.44;82.09;;
52872;Laerm;40124;52.198;9.902;2023-04-01T14:40:45;71.99;47.42;83.68;;
52872;Laerm;40124;52.198;9.902;2023-04-01T14:43:58;71.09;50.28;82.73;;
52872;Laerm;40124;52.198;9.902;2023-04-01T14:46:06;70.55;49.78;83.51;;
52872;Laerm;40124;52.198;9.902;2023-04-01T14:48:37;71.94;48.81;82.06;;
52872;Laerm;40124;52.198;9.902;2023-04-01T14:51:08;72.22;50.74;86.09;;
52872;Laerm;40124;52.198;9.902;2023-04-01T14:53:36;73.01;49.69;84.90;;
52872;Laerm;40124;52.198;9.902;2023-04-01T14:56:03;70.75;46.45;82.32;;
52872;Laerm;40124;52.198;9.902;2023-04-01T14:58:45;70.71;48.74;81.52;;
52872;Laerm;40124;52.198;9.902;2023-04-01T15:01:13;72.54;47.83;84.71;;
52872;Laerm;40124;52.198;9.902;2023-04-01T15:11:29;71.89;45.42;82.55;;
52872;Laerm;40124;52.198;9.902;2023-04-01T15:16:41;71.03;46.07;84.94;;
52872;Laerm;40124;52.198;9.902;2023-04-01T15:19:18;66.88;46.10;81.05;;
52872;Laerm;40124;52.198;9.902;2023-04-01T15:22:01;71.68;45.36;85.66;;
52872;Laerm;40124;52.198;9.902;2023-04-01T15:24:47;69.92;44.47;84.30;;
52872;Laerm;40124;52.198;9.902;2023-04-01T15:29:57;69.91;46.13;82.98;;
52872;Laerm;40124;52.198;9.902;2023-04-01T15:32:42;72.20;47.46;86.65;;
52872;Laerm;40124;52.198;9.902;2023-04-01T15:40:22;69.74;45.97;81.14;;
52872;Laerm;40124;52.198;9.902;2023-04-01T15:45:41;71.02;47.42;82.53;;
52872;Laerm;40124;52.198;9.902;2023-04-01T15:50:51;72.39;45.77;83.42;;
52872;Laerm;40124;52.198;9.902;2023-04-01T16:01:26;71.09;49.83;82.23;;
52872;Laerm;40124;52.198;9.902;2023-04-01T16:06:26;69.22;46.48;82.23;;
52872;Laerm;40124;52.198;9.902;2023-04-01T16:16:49;70.39;47.83;81.32;;
52872;Laerm;40124;52.198;9.902;2023-04-01T16:21:44;71.80;50.91;84.77;;
52872;Laerm;40124;52.198;9.902;2023-04-01T16:32:08;69.22;44.94;84.25;;
52872;Laerm;40124;52.198;9.902;2023-04-01T16:34:41;70.68;48.25;82.76;;
52872;Laerm;40124;52.198;9.902;2023-04-01T16:37:12;70.17;45.94;84.06;;
52872;Laerm;40124;52.198;9.902;2023-04-01T16:44:47;67.48;44.51;80.51;;
52872;Laerm;40124;52.198;9.902;2023-04-01T16:47:15;69.53;44.72;85.02;;
52872;Laerm;40124;52.198;9.902;2023-04-01T16:49:44;70.55;52.48;81.23;;
52872;Laerm;40124;52.198;9.902;2023-04-01T16:54:57;68.55;44.51;83.34;;
52872;Laerm;40124;52.198;9.902;2023-04-01T16:57:25;68.14;43.90;83.53;;
52872;Laerm;40124;52.198;9.902;2023-04-01T16:59:54;68.90;43.77;83.69;;
52872;Laerm;40124;52.198;9.902;2023-04-01T17:02:22;69.90;45.77;82.91;;
52872;Laerm;40124;52.198;9.902;2023-04-01T17:05:06;71.18;51.85;83.26;;
52872;Laerm;40124;52.198;9.902;2023-04-01T17:07:49;69.16;43.63;82.01;;
52872;Laerm;40124;52.198;9.902;2023-04-01T17:15:57;70.60;44.82;84.48;;
52872;Laerm;40124;52.198;9.902;2023-04-01T17:21:44;67.72;44.43;80.75;;
52872;Laerm;40124;52.198;9.902;2023-04-01T17:26:45;68.92;44.27;82.14;;
52872;Laerm;40124;52.198;9.902;2023-04-01T17:31:45;66.73;44.54;82.29;;
52872;Laerm;40124;52.198;9.902;2023-04-01T17:39:23;67.84;43.68;82.59;;
52872;Laerm;40124;52.198;9.902;2023-04-01T17:41:54;69.05;45.98;81.65;;
52872;Laerm;40124;52.198;9.902;2023-04-01T17:47:11;70.18;45.17;87.73;;
52872;Laerm;40124;52.198;9.902;2023-04-01T17:50:22;63.54;43.68;79.65;;
52872;Laerm;40124;52.198;9.902;2023-04-01T17:52:32;67.80;45.57;81.83;;
52872;Laerm;40124;52.198;9.902;2023-04-01T17:55:15;68.70;44.39;82.16;;
52872;Laerm;40124;52.198;9.902;2023-04-01T17:57:51;66.71;45.33;80.81;;
52872;Laerm;40124;52.198;9.902;2023-04-01T18:00:39;68.87;43.54;82.73;;
52872;Laerm;40124;52.198;9.902;2023-04-01T18:03:17;68.35;44.58;83.71;;
52872;Laerm;40124;52.198;9.902;2023-04-01T18:08:12;68.38;43.39;81.71;;
52872;Laerm;40124;52.198;9.902;2023-04-01T18:10:49;68.39;46.59;83.13;;
52872;Laerm;40124;52.198;9.902;2023-04-01T18:13:24;69.14;44.58;84.60;;
52872;Laerm;40124;52.198;9.902;2023-04-01T18:18:43;65.76;42.59;80.36;;
52872;Laerm;40124;52.198;9.902;2023-04-01T18:23:44;67.73;43.63;82.48;;
52872;Laerm;40124;52.198;9.902;2023-04-01T18:26:20;66.76;42.82;81.13;;
52872;Laerm;40124;52.198;9.902;2023-04-01T18:28:52;68.67;44.54;84.02;;
52872;Laerm;40124;52.198;9.902;2023-04-01T18:31:21;66.61;42.88;81.83;;
52872;Laerm;40124;52.198;9.902;2023-04-01T18:34:37;70.29;45.23;81.37;;
52872;Laerm;40124;52.198;9.902;2023-04-01T18:36:40;68.59;44.45;79.83;;
52872;Laerm;40124;52.198;9.902;2023-04-01T18:42:00;65.80;41.68;81.53;;
52872;Laerm;40124;52.198;9.902;2023-04-01T18:44:30;68.69;43.72;83.45;;
52872;Laerm;40124;52.198;9.902;2023-04-01T18:49:43;63.01;42.71;81.97;;
52872;Laerm;40124;52.198;9.902;2023-04-01T18:52:15;67.94;42.35;86.00;;
52872;Laerm;40124;52.198;9.902;2023-04-01T18:54:46;68.80;44.73;81.85;;
52872;Laerm;40124;52.198;9.902;2023-04-01T18:57:14;66.56;43.44;81.98;;
52872;Laerm;40124;52.198;9.902;2023-04-01T18:59:41;69.26;41.22;85.15;;
52872;Laerm;40124;52.198;9.902;2023-04-01T19:02:13;64.07;40.88;80.13;;
52872;Laerm;40124;52.198;9.902;2023-04-01T19:04:45;69.15;45.07;84.31;;
52872;Laerm;40124;52.198;9.902;2023-04-01T19:07:27;67.33;44.39;84.65;;
52872;Laerm;40124;52.198;9.902;2023-04-01T19:10:12;65.23;41.33;81.52;;
52872;Laerm;40124;52.198;9.902;2023-04-01T19:12:53;68.05;43.24;82.45;;
52872;Laerm;40124;52.198;9.902;2023-04-01T19:18:22;68.23;43.04;83.68;;
52872;Laerm;40124;52.198;9.902;2023-04-01T19:20:52;64.47;42.59;80.60;;
52872;Laerm;40124;52.198;9.902;2023-04-01T19:25:59;61.54;41.06;80.35;;
52872;Laerm;40124;52.198;9.902;2023-04-01T19:31:24;63.34;42.09;79.86;;
52872;Laerm;40124;52.198;9.902;2023-04-01T19:34:14;65.27;41.22;80.42;;
52872;Laerm;40124;52.198;9.902;2023-04-01T19:42:09;63.16;40.80;79.00;;
52872;Laerm;40124;52.198;9.902;2023-04-01T19:49:40;65.11;39.92;81.22;;
52872;Laerm;40124;52.198;9.902;2023-04-01T19:54:39;65.55;41.38;84.85;;
52872;Laerm;40124;52.198;9.902;2023-04-01T19:57:16;67.70;43.29;84.98;;
52872;Laerm;40124;52.198;9.902;2023-04-01T20:02:56;65.52;43.09;80.50;;
52872;Laerm;40124;52.198;9.902;2023-04-01T20:07:52;63.64;43.29;80.74;;
52872;Laerm;40124;52.198;9.902;2023-04-01T20:10:25;64.63;41.81;81.45;;
52872;Laerm;40124;52.198;9.902;2023-04-01T20:13:00;66.67;42.22;80.35;;
52872;Laerm;40124;52.198;9.902;2023-04-01T20:15:39;67.54;41.75;79.30;;
52872;Laerm;40124;52.198;9.902;2023-04-01T20:18:08;63.55;39.92;82.11;;
52872;Laerm;40124;52.198;9.902;2023-04-01T20:20:38;62.48;40.03;80.38;;
52872;Laerm;40124;52.198;9.902;2023-04-01T20:25:43;61.48;41.53;76.68;;
52872;Laerm;40124;52.198;9.902;2023-04-01T20:28:12;70.89;41.82;85.71;;